Time;durP1;ratioP1;P1;durP2;ratioP2;P2;SDS_P1;SDS_P2;PMS_P1;PMS_P2;Temp;Humidity;BMP_temperature;BMP_pressure;BME280_temperature;BME280_humidity;BME280_pressure;Samples;Min_cycle;Max_cycle;Signal;HPM_P1;HPM_P2
2022/11/18 00:00:19;;;;;;;8.70;7.10;;;;;;;;;;108510;1265;22606;-32
2022/11/18 00:03:03;;;;;;;8.60;6.70;;;;;;;;;;108510;1266;22496;-32
2022/11/18 00:05:36;;;;;;;9.40;6.70;;;;;;;;;;108562;1267;22499;-32
2022/11/18 00:08:10;;;;;;;8.40;6.50;;;;;;;;;;108554;1259;25225;-32
2022/11/18 00:10:43;;;;;;;8.90;7.00;;;;;;;;;;108468;1266;22822;-32
2022/11/18 00:16:08;;;;;;;8.90;6.80;;;;;;;;;;108504;1259;25401;-32
2022/11/18 00:18:41;;;;;;;8.60;6.50;;;;;;;;;;108540;1266;23068;-32
2022/11/18 00:21:14;;;;;;;8.90;7.00;;;;;;;;;;108555;1266;22517;-32
2022/11/18 00:23:48;;;;;;;8.70;6.80;;;;;;;;;;108503;1266;22647;-32
2022/11/18 00:26:20;;;;;;;7.90;6.20;;;;;;;;;;108531;1266;22578;-32
2022/11/18 00:28:52;;;;;;;8.20;6.30;;;;;;;;;;108487;1268;22624;-32
2022/11/18 00:31:25;;;;;;;8.70;6.50;;;;;;;;;;108531;1266;25438;-32
2022/11/18 00:33:58;;;;;;;8.00;6.30;;;;;;;;;;108554;1266;22590;-32
2022/11/18 00:36:33;;;;;;;7.90;6.10;;;;;;;;;;108495;1265;23890;-32
2022/11/18 00:39:06;;;;;;;8.00;5.90;;;;;;;;;;108507;1265;22917;-32
2022/11/18 00:44:29;;;;;;;8.80;6.70;;;;;;;;;;108495;1266;22567;-32
2022/11/18 00:47:01;;;;;;;7.60;5.90;;;;;;;;;;108510;1268;22568;-32
2022/11/18 00:49:33;;;;;;;8.10;5.80;;;;;;;;;;108499;1268;22642;-32
2022/11/18 00:52:06;;;;;;;8.40;6.30;;;;;;;;;;108232;1265;321430;-32
2022/11/18 00:54:38;;;;;;;8.50;5.80;;;;;;;;;;108433;1259;22623;-32
2022/11/18 00:57:10;;;;;;;7.10;5.40;;;;;;;;;;108453;1265;22634;-32
2022/11/18 00:59:44;;;;;;;8.50;5.70;;;;;;;;;;108448;1266;22871;-32
2022/11/18 01:02:16;;;;;;;7.90;6.00;;;;;;;;;;108551;1269;23265;-32
2022/11/18 01:04:51;;;;;;;7.70;5.80;;;;;;;;;;108512;1267;22528;-32
2022/11/18 01:07:23;;;;;;;7.20;5.80;;;;;;;;;;108493;1266;24118;-32
2022/11/18 01:09:56;;;;;;;7.30;5.70;;;;;;;;;;108486;1266;23101;-32
2022/11/18 01:15:18;;;;;;;7.70;5.70;;;;;;;;;;108432;1264;22563;-32
2022/11/18 01:17:51;;;;;;;7.50;5.70;;;;;;;;;;108452;1266;22606;-32
2022/11/18 01:20:25;;;;;;;7.20;5.20;;;;;;;;;;108432;1266;22572;-32
2022/11/18 01:22:58;;;;;;;6.90;5.60;;;;;;;;;;108507;1266;24025;-32
2022/11/18 01:25:31;;;;;;;7.40;5.00;;;;;;;;;;108528;1268;22564;-32
2022/11/18 01:28:02;;;;;;;;;;;;;;;;;;108525;1266;22626;-32
2022/11/18 01:30:38;;;;;;;7.00;5.10;;;;;;;;;;108517;1266;22632;-32
2022/11/18 01:33:11;;;;;;;7.20;5.30;;;;;;;;;;108481;1266;22499;-32
2022/11/18 01:35:44;;;;;;;;;;;;;;;;;;108464;1266;22580;-32
2022/11/18 01:38:17;;;;;;;6.90;5.20;;;;;;;;;;108425;1262;24446;-32
2022/11/18 01:40:50;;;;;;;7.00;5.30;;;;;;;;;;108460;1258;22517;-32
2022/11/18 01:43:23;;;;;;;6.30;5.10;;;;;;;;;;108535;1266;22515;-32
2022/11/18 01:45:56;;;;;;;7.10;5.10;;;;;;;;;;108469;1268;22552;-32
2022/11/18 01:48:33;;;;;;;7.10;5.50;;;;;;;;;;108512;1268;22640;-32
2022/11/18 01:51:13;;;;;;;6.20;5.00;;;;;;;;;;108518;1266;22636;-32
2022/11/18 01:53:51;;;;;;;7.00;5.00;;;;;;;;;;108545;1267;22512;-32
2022/11/18 01:56:28;;;;;;;7.40;4.80;;;;;;;;;;108511;1264;22541;-32
2022/11/18 01:59:08;;;;;;;6.60;5.00;;;;;;;;;;108530;1268;22587;-32
2022/11/18 02:01:41;;;;;;;7.00;5.40;;;;;;;;;;108528;1265;22551;-32
2022/11/18 02:04:15;;;;;;;7.20;4.60;;;;;;;;;;108550;1268;25396;-32
2022/11/18 02:06:49;;;;;;;6.30;4.90;;;;;;;;;;108521;1266;22555;-32
2022/11/18 02:09:22;;;;;;;6.40;5.00;;;;;;;;;;108546;1268;22542;-32
2022/11/18 02:11:54;;;;;;;6.60;4.90;;;;;;;;;;108525;1262;22557;-32
2022/11/18 02:14:32;;;;;;;6.40;5.10;;;;;;;;;;108518;1263;22539;-32
2022/11/18 02:17:18;;;;;;;7.20;5.10;;;;;;;;;;108532;1266;22670;-32
2022/11/18 02:20:28;;;;;;;6.80;4.90;;;;;;;;;;108530;1258;22549;-32
2022/11/18 02:23:39;;;;;;;7.30;5.40;;;;;;;;;;108559;1268;22564;-32
2022/11/18 02:26:47;;;;;;;7.20;5.30;;;;;;;;;;108567;1268;22547;-32
2022/11/18 02:29:25;;;;;;;7.30;5.40;;;;;;;;;;108564;1265;22512;-32
2022/11/18 02:32:02;;;;;;;6.60;5.00;;;;;;;;;;108524;1263;22560;-32
2022/11/18 02:34:48;;;;;;;6.50;4.80;;;;;;;;;;108448;1266;22770;-32
2022/11/18 02:37:29;;;;;;;7.50;5.20;;;;;;;;;;108600;1259;22523;-33
2022/11/18 02:40:14;;;;;;;7.10;5.00;;;;;;;;;;108598;1266;22683;-33
2022/11/18 02:42:53;;;;;;;6.30;4.80;;;;;;;;;;108562;1266;22537;-33
2022/11/18 02:45:29;;;;;;;7.00;4.90;;;;;;;;;;108598;1268;22584;-33
2022/11/18 02:48:08;;;;;;;6.70;4.80;;;;;;;;;;108566;1268;22566;-33
2022/11/18 02:50:46;;;;;;;7.00;5.10;;;;;;;;;;108602;1268;22506;-33
2022/11/18 02:53:21;;;;;;;6.30;4.80;;;;;;;;;;108504;1267;22549;-33
2022/11/18 02:55:56;;;;;;;6.70;4.90;;;;;;;;;;108484;1266;22562;-33
2022/11/18 02:58:29;;;;;;;6.90;4.60;;;;;;;;;;108473;1268;22576;-33
2022/11/18 03:01:03;;;;;;;6.50;4.80;;;;;;;;;;108502;1260;22551;-33
2022/11/18 03:03:36;;;;;;;6.40;4.50;;;;;;;;;;108540;1265;22550;-33
2022/11/18 03:06:19;;;;;;;7.10;4.70;;;;;;;;;;108614;1259;22559;-33
2022/11/18 03:08:59;;;;;;;6.60;4.40;;;;;;;;;;108563;1266;22683;-33
2022/11/18 03:11:36;;;;;;;5.90;4.10;;;;;;;;;;108568;1268;22552;-33
2022/11/18 03:14:24;;;;;;;6.00;4.40;;;;;;;;;;108470;1262;22690;-33
2022/11/18 03:17:02;;;;;;;6.30;4.70;;;;;;;;;;108494;1267;22557;-33
2022/11/18 03:19:52;;;;;;;6.00;4.40;;;;;;;;;;108504;1263;22536;-33
2022/11/18 03:22:31;;;;;;;6.40;4.50;;;;;;;;;;108475;1265;22564;-33
2022/11/18 03:25:08;;;;;;;5.60;4.30;;;;;;;;;;108596;1258;22544;-33
2022/11/18 03:27:49;;;;;;;6.10;4.30;;;;;;;;;;108596;1266;22560;-33
2022/11/18 03:30:27;;;;;;;6.00;4.30;;;;;;;;;;108560;1268;22572;-33
2022/11/18 03:33:04;;;;;;;6.30;4.20;;;;;;;;;;108556;1258;22536;-33
2022/11/18 03:35:42;;;;;;;6.00;4.40;;;;;;;;;;108468;1265;22532;-33
2022/11/18 03:38:20;;;;;;;6.00;4.60;;;;;;;;;;108480;1261;22551;-33
2022/11/18 03:40:58;;;;;;;5.70;4.10;;;;;;;;;;108492;1267;23015;-33
2022/11/18 03:43:37;;;;;;;6.30;4.40;;;;;;;;;;108477;1266;22513;-33
2022/11/18 03:46:14;;;;;;;6.70;4.50;;;;;;;;;;108535;1268;25432;-33
2022/11/18 03:48:53;;;;;;;6.30;4.50;;;;;;;;;;108553;1268;22552;-33
2022/11/18 03:51:31;;;;;;;5.80;4.00;;;;;;;;;;108582;1268;22711;-33
2022/11/18 03:54:13;;;;;;;6.10;4.40;;;;;;;;;;108514;1266;22564;-33
2022/11/18 03:56:54;;;;;;;6.10;4.20;;;;;;;;;;108547;1259;22562;-33
2022/11/18 03:59:35;;;;;;;6.00;4.20;;;;;;;;;;108541;1267;22551;-33
2022/11/18 04:02:18;;;;;;;6.00;4.10;;;;;;;;;;108566;1266;22557;-33
2022/11/18 04:04:53;;;;;;;5.60;3.80;;;;;;;;;;108528;1268;22561;-33
2022/11/18 04:07:32;;;;;;;5.70;3.90;;;;;;;;;;108531;1268;22525;-33
2022/11/18 04:10:13;;;;;;;5.80;4.00;;;;;;;;;;108537;1266;22673;-33
2022/11/18 04:12:57;;;;;;;6.30;4.20;;;;;;;;;;108519;1268;22502;-33
2022/11/18 04:15:29;;;;;;;;;;;;;;;;;;108498;1266;22581;-33
2022/11/18 04:18:01;;;;;;;5.80;3.80;;;;;;;;;;108476;1268;22809;-32
2022/11/18 04:20:33;;;;;;;5.40;3.60;;;;;;;;;;108501;1265;22643;-32
2022/11/18 04:23:06;;;;;;;5.90;4.30;;;;;;;;;;108461;1268;23003;-32
2022/11/18 04:25:37;;;;;;;;;;;;;;;;;;108467;1265;25215;-32
2022/11/18 04:28:10;;;;;;;5.70;3.70;;;;;;;;;;108504;1266;23066;-32
2022/11/18 04:30:42;;;;;;;5.10;3.70;;;;;;;;;;108494;1266;25274;-32
2022/11/18 04:33:14;;;;;;;5.40;3.70;;;;;;;;;;108447;1266;22651;-32
2022/11/18 04:35:49;;;;;;;5.80;3.90;;;;;;;;;;108504;1265;25946;-32
2022/11/18 04:38:21;;;;;;;5.00;3.40;;;;;;;;;;108491;1268;22635;-32
2022/11/18 04:40:53;;;;;;;5.50;3.60;;;;;;;;;;108476;1258;24356;-32
2022/11/18 04:43:29;;;;;;;5.00;3.60;;;;;;;;;;108463;1266;22495;-32
2022/11/18 04:46:01;;;;;;;5.00;3.20;;;;;;;;;;108391;1267;22728;-32
2022/11/18 04:48:34;;;;;;;5.20;3.20;;;;;;;;;;108368;1266;22576;-32
2022/11/18 04:51:07;;;;;;;4.90;3.30;;;;;;;;;;108407;1267;22748;-32
2022/11/18 04:53:39;;;;;;;5.10;3.50;;;;;;;;;;108443;1267;22704;-32
2022/11/18 04:56:12;;;;;;;5.50;3.20;;;;;;;;;;108435;1267;22547;-32
2022/11/18 04:58:43;;;;;;;;;;;;;;;;;;108480;1259;24338;-32
2022/11/18 05:01:15;;;;;;;5.30;3.30;;;;;;;;;;108439;1265;22565;-32
2022/11/18 05:03:48;;;;;;;4.80;3.10;;;;;;;;;;108459;1268;22666;-32
2022/11/18 05:06:21;;;;;;;4.70;3.00;;;;;;;;;;108418;1266;21892;-32
2022/11/18 05:08:53;;;;;;;4.90;3.30;;;;;;;;;;108388;1265;22644;-32
2022/11/18 05:14:16;;;;;;;5.00;3.30;;;;;;;;;;108374;1267;22571;-32
2022/11/18 05:16:48;;;;;;;4.60;3.00;;;;;;;;;;108405;1259;25264;-32
2022/11/18 05:19:21;;;;;;;5.10;3.10;;;;;;;;;;108346;1268;22554;-32
2022/11/18 05:21:56;;;;;;;4.70;3.00;;;;;;;;;;108508;1262;22641;-32
2022/11/18 05:24:29;;;;;;;4.90;3.20;;;;;;;;;;108461;1266;22531;-32
2022/11/18 05:27:01;;;;;;;4.30;2.70;;;;;;;;;;108391;1267;25251;-32
2022/11/18 05:29:33;;;;;;;4.40;3.00;;;;;;;;;;108403;1267;25416;-32
2022/11/18 05:32:06;;;;;;;5.30;3.20;;;;;;;;;;108404;1267;22555;-32
2022/11/18 05:34:38;;;;;;;5.50;3.00;;;;;;;;;;108437;1265;22536;-32
2022/11/18 05:37:11;;;;;;;5.10;2.90;;;;;;;;;;108443;1266;22578;-32
2022/11/18 05:39:43;;;;;;;4.80;3.00;;;;;;;;;;108468;1266;22581;-32
2022/11/18 05:45:07;;;;;;;5.00;3.00;;;;;;;;;;108481;1269;22535;-32
2022/11/18 05:50:25;;;;;;;4.30;2.50;;;;;;;;;;108471;1268;22569;-32
2022/11/18 05:52:57;;;;;;;5.40;2.80;;;;;;;;;;108440;1269;22560;-32
2022/11/18 05:55:35;;;;;;;4.90;2.80;;;;;;;;;;108458;1266;25406;-32
2022/11/18 05:58:08;;;;;;;4.30;2.60;;;;;;;;;;108462;1266;23907;-32
2022/11/18 06:00:40;;;;;;;4.50;2.40;;;;;;;;;;108434;1268;22523;-32
2022/11/18 06:03:20;;;;;;;4.30;2.80;;;;;;;;;;108488;1266;22562;-32
2022/11/18 06:05:55;;;;;;;4.80;2.60;;;;;;;;;;108494;1267;22510;-32
2022/11/18 06:08:32;;;;;;;5.00;2.80;;;;;;;;;;108548;1268;23897;-32
2022/11/18 06:11:05;;;;;;;4.90;3.00;;;;;;;;;;108505;1268;23400;-32
2022/11/18 06:13:43;;;;;;;5.00;2.70;;;;;;;;;;108522;1262;22634;-32
2022/11/18 06:16:16;;;;;;;4.70;2.70;;;;;;;;;;108521;1266;22602;-32
2022/11/18 06:18:48;;;;;;;4.30;2.50;;;;;;;;;;108536;1268;22569;-32
2022/11/18 06:21:21;;;;;;;5.70;2.70;;;;;;;;;;108536;1266;22523;-32
2022/11/18 06:23:53;;;;;;;4.70;2.60;;;;;;;;;;108530;1267;22781;-32
2022/11/18 06:26:25;;;;;;;4.80;2.80;;;;;;;;;;108519;1265;24154;-32
2022/11/18 06:28:59;;;;;;;5.70;3.00;;;;;;;;;;108504;1268;22525;-32
2022/11/18 06:31:31;;;;;;;4.70;2.70;;;;;;;;;;108529;1268;22612;-32
2022/11/18 06:34:03;;;;;;;5.30;2.60;;;;;;;;;;108523;1266;22538;-32
2022/11/18 06:36:36;;;;;;;4.80;2.70;;;;;;;;;;108527;1268;24893;-32
2022/11/18 06:39:09;;;;;;;6.30;2.80;;;;;;;;;;108540;1268;22502;-32
2022/11/18 06:41:41;;;;;;;4.60;2.60;;;;;;;;;;108549;1268;22611;-32
2022/11/18 06:44:16;;;;;;;5.40;2.60;;;;;;;;;;108521;1266;22518;-32
2022/11/18 06:46:57;;;;;;;4.40;2.50;;;;;;;;;;108540;1266;22549;-32
2022/11/18 06:49:31;;;;;;;4.30;2.40;;;;;;;;;;108402;1267;22539;-32
2022/11/18 06:52:03;;;;;;;5.10;2.50;;;;;;;;;;108447;1267;25299;-32
2022/11/18 06:54:35;;;;;;;4.70;2.40;;;;;;;;;;108450;1265;25434;-32
2022/11/18 06:57:12;;;;;;;4.40;2.50;;;;;;;;;;108429;1268;22578;-32
2022/11/18 06:59:44;;;;;;;4.60;2.40;;;;;;;;;;108525;1266;25402;-32
2022/11/18 07:02:17;;;;;;;4.60;2.50;;;;;;;;;;108528;1268;22521;-32
2022/11/18 07:04:50;;;;;;;4.70;2.40;;;;;;;;;;108564;1268;22554;-32
2022/11/18 07:07:22;;;;;;;5.60;2.60;;;;;;;;;;108532;1267;22738;-32
2022/11/18 07:09:55;;;;;;;5.40;2.50;;;;;;;;;;108432;1266;22537;-32
2022/11/18 07:12:27;;;;;;;5.60;2.60;;;;;;;;;;108390;1270;21829;-32
2022/11/18 07:15:00;;;;;;;5.40;2.60;;;;;;;;;;108389;1273;22538;-32
2022/11/18 07:17:34;;;;;;;5.50;2.50;;;;;;;;;;108441;1266;22608;-32
2022/11/18 07:20:09;;;;;;;6.30;2.60;;;;;;;;;;108549;1266;22555;-32
2022/11/18 07:22:41;;;;;;;6.20;2.50;;;;;;;;;;108618;1265;22556;-32
2022/11/18 07:25:17;;;;;;;6.60;2.80;;;;;;;;;;108544;1268;22596;-32
2022/11/18 07:27:49;;;;;;;6.50;2.70;;;;;;;;;;108577;1266;22509;-32
2022/11/18 07:30:22;;;;;;;5.20;2.80;;;;;;;;;;108433;1267;22736;-32
2022/11/18 07:32:53;;;;;;;;;;;;;;;;;;108478;1264;24249;-32
2022/11/18 07:35:25;;;;;;;6.10;2.60;;;;;;;;;;108438;1267;22566;-32
2022/11/18 07:37:58;;;;;;;5.50;2.80;;;;;;;;;;108822;1254;22547;-34
2022/11/18 07:40:31;;;;;;;4.80;2.30;;;;;;;;;;108292;1261;22553;-31
2022/11/18 07:43:03;;;;;;;5.10;2.60;;;;;;;;;;108438;1274;22554;-31
2022/11/18 07:45:40;;;;;;;6.20;2.50;;;;;;;;;;108375;1267;22730;-31
2022/11/18 07:48:14;;;;;;;6.50;2.70;;;;;;;;;;108344;1268;22690;-31
2022/11/18 07:50:46;;;;;;;5.00;2.50;;;;;;;;;;108369;1267;22495;-32
2022/11/18 07:53:18;;;;;;;6.00;2.50;;;;;;;;;;108413;1268;22513;-31
2022/11/18 07:55:50;;;;;;;6.00;2.70;;;;;;;;;;108379;1260;24002;-31
2022/11/18 07:58:23;;;;;;;5.40;2.40;;;;;;;;;;108403;1267;22561;-32
2022/11/18 08:00:55;;;;;;;5.70;2.70;;;;;;;;;;108359;1264;25419;-32
2022/11/18 08:03:31;;;;;;;7.20;2.80;;;;;;;;;;108415;1267;23621;-29
2022/11/18 08:06:08;;;;;;;4.70;2.50;;;;;;;;;;108384;1267;22588;-29
2022/11/18 08:08:41;;;;;;;5.30;2.60;;;;;;;;;;108276;1270;22564;-32
2022/11/18 08:11:16;;;;;;;5.10;2.60;;;;;;;;;;108309;1268;22605;-32
2022/11/18 08:13:48;;;;;;;4.70;2.60;;;;;;;;;;108454;1268;22774;-33
2022/11/18 08:16:24;;;;;;;6.40;2.80;;;;;;;;;;108436;1268;22551;-32
2022/11/18 08:18:58;;;;;;;4.80;2.60;;;;;;;;;;108401;1266;22542;-32
2022/11/18 08:21:30;;;;;;;4.90;2.30;;;;;;;;;;108370;1268;23108;-33
2022/11/18 08:24:02;;;;;;;5.90;2.70;;;;;;;;;;108396;1267;22566;-32
2022/11/18 08:26:37;;;;;;;5.30;2.50;;;;;;;;;;108373;1267;25438;-33
2022/11/18 08:29:09;;;;;;;5.20;2.60;;;;;;;;;;108329;1268;22560;-32
2022/11/18 08:31:41;;;;;;;5.70;2.70;;;;;;;;;;108372;1263;23887;-32
2022/11/18 08:34:13;;;;;;;5.70;2.60;;;;;;;;;;108415;1268;22558;-33
2022/11/18 08:36:47;;;;;;;6.50;2.60;;;;;;;;;;108384;1268;22503;-32
2022/11/18 08:39:19;;;;;;;6.40;2.50;;;;;;;;;;108379;1267;22511;-33
2022/11/18 08:41:51;;;;;;;6.00;2.80;;;;;;;;;;108376;1267;22614;-32
2022/11/18 08:44:23;;;;;;;6.90;2.70;;;;;;;;;;108810;1250;22557;-32
2022/11/18 08:46:57;;;;;;;5.50;2.50;;;;;;;;;;108448;1264;22549;-31
2022/11/18 08:49:29;;;;;;;5.80;2.60;;;;;;;;;;108469;1265;22550;-31
2022/11/18 08:52:05;;;;;;;5.20;2.30;;;;;;;;;;108216;1266;337348;-32
2022/11/18 08:54:37;;;;;;;5.20;2.30;;;;;;;;;;108540;1265;22557;-35
2022/11/18 08:57:09;;;;;;;4.90;2.20;;;;;;;;;;108585;1266;22552;-32
2022/11/18 08:59:41;;;;;;;6.10;2.40;;;;;;;;;;108561;1265;22635;-33
2022/11/18 09:02:18;;;;;;;6.00;2.20;;;;;;;;;;108496;1267;22547;-33
2022/11/18 09:04:52;;;;;;;4.50;2.10;;;;;;;;;;108484;1267;25435;-33
2022/11/18 09:07:24;;;;;;;7.40;2.20;;;;;;;;;;108537;1266;22540;-32
2022/11/18 09:09:55;;;;;;;;;;;;;;;;;;108523;1265;25213;-32
2022/11/18 09:12:27;;;;;;;5.30;2.30;;;;;;;;;;108456;1265;22572;-33
2022/11/18 09:14:59;;;;;;;5.00;2.30;;;;;;;;;;108449;1268;22546;-33
2022/11/18 09:17:31;;;;;;;5.40;2.40;;;;;;;;;;108456;1266;22532;-32
2022/11/18 09:20:24;;;;;;;5.60;2.30;;;;;;;;;;108501;1268;22572;-32
2022/11/18 09:22:59;;;;;;;4.50;2.20;;;;;;;;;;108492;1257;22484;-33
2022/11/18 09:25:30;;;;;;;6.30;2.10;;;;;;;;;;108483;1267;22593;-33
2022/11/18 09:28:05;;;;;;;5.00;2.30;;;;;;;;;;108475;1267;22577;-33
2022/11/18 09:30:37;;;;;;;5.70;2.40;;;;;;;;;;108482;1264;22568;-33
2022/11/18 09:33:09;;;;;;;5.10;2.40;;;;;;;;;;108510;1258;22507;-33
2022/11/18 09:35:47;;;;;;;4.80;2.20;;;;;;;;;;108525;1265;22575;-32
2022/11/18 09:38:19;;;;;;;5.40;2.20;;;;;;;;;;108530;1266;22550;-33
2022/11/18 09:41:06;;;;;;;4.50;2.40;;;;;;;;;;108549;1268;22547;-32
2022/11/18 09:43:49;;;;;;;4.80;2.20;;;;;;;;;;108432;1267;22558;-33
2022/11/18 09:46:37;;;;;;;4.50;2.20;;;;;;;;;;108393;1260;23903;-33
2022/11/18 09:49:18;;;;;;;4.20;2.20;;;;;;;;;;108453;1267;22621;-33
2022/11/18 09:51:55;;;;;;;5.10;2.40;;;;;;;;;;108433;1267;22549;-33
2022/11/18 09:54:30;;;;;;;5.70;2.40;;;;;;;;;;108507;1262;22547;-33
2022/11/18 09:57:09;;;;;;;4.90;2.40;;;;;;;;;;108422;1266;22559;-33
2022/11/18 09:59:41;;;;;;;5.00;2.40;;;;;;;;;;108490;1262;22510;-32
2022/11/18 10:02:34;;;;;;;5.20;2.30;;;;;;;;;;108454;1259;22583;-32
2022/11/18 10:05:21;;;;;;;4.20;2.30;;;;;;;;;;108408;1251;22536;-32
2022/11/18 10:08:06;;;;;;;4.80;2.40;;;;;;;;;;108427;1267;22558;-33
2022/11/18 10:10:48;;;;;;;4.50;2.10;;;;;;;;;;108427;1267;22729;-33
2022/11/18 10:13:37;;;;;;;5.00;2.30;;;;;;;;;;108411;1265;22643;-33
2022/11/18 10:16:26;;;;;;;3.70;2.00;;;;;;;;;;108476;1266;22517;-33
2022/11/18 10:19:12;;;;;;;5.40;2.50;;;;;;;;;;108428;1267;22575;-32
2022/11/18 10:22:01;;;;;;;5.10;2.60;;;;;;;;;;108500;1263;22609;-32
2022/11/18 10:24:41;;;;;;;6.40;2.90;;;;;;;;;;108406;1267;23909;-33
2022/11/18 10:27:15;;;;;;;5.60;2.40;;;;;;;;;;108407;1259;23155;-33
2022/11/18 10:29:55;;;;;;;5.80;2.80;;;;;;;;;;108415;1267;23035;-33
2022/11/18 10:32:28;;;;;;;5.70;2.70;;;;;;;;;;108413;1266;22553;-33
2022/11/18 10:35:00;;;;;;;5.80;2.50;;;;;;;;;;108440;1268;25916;-33
2022/11/18 10:37:36;;;;;;;5.70;2.90;;;;;;;;;;108521;1262;22596;-33
2022/11/18 10:40:30;;;;;;;5.80;3.00;;;;;;;;;;108483;1268;22517;-33
2022/11/18 10:43:02;;;;;;;5.60;2.40;;;;;;;;;;108455;1268;22710;-33
2022/11/18 10:45:38;;;;;;;6.60;2.80;;;;;;;;;;108411;1267;22604;-33
2022/11/18 10:48:22;;;;;;;5.90;2.70;;;;;;;;;;108427;1267;22499;-33
2022/11/18 10:50:54;;;;;;;5.50;2.50;;;;;;;;;;108449;1265;22602;-33
2022/11/18 10:53:35;;;;;;;7.60;2.90;;;;;;;;;;108441;1261;23905;-32
2022/11/18 10:56:14;;;;;;;5.60;2.70;;;;;;;;;;108425;1265;22593;-32
2022/11/18 10:58:52;;;;;;;5.50;2.60;;;;;;;;;;108398;1268;22612;-33
2022/11/18 11:01:26;;;;;;;6.70;2.70;;;;;;;;;;108435;1268;22551;-33
2022/11/18 11:04:12;;;;;;;6.50;2.70;;;;;;;;;;108382;1267;22553;-33
2022/11/18 11:06:44;;;;;;;5.50;2.60;;;;;;;;;;108401;1262;23876;-32
2022/11/18 11:09:29;;;;;;;6.10;2.60;;;;;;;;;;108423;1266;22514;-33
2022/11/18 11:12:15;;;;;;;6.30;2.50;;;;;;;;;;108403;1262;25268;-33
2022/11/18 11:14:56;;;;;;;9.40;2.70;;;;;;;;;;108359;1262;22573;-34
2022/11/18 11:17:35;;;;;;;5.50;2.40;;;;;;;;;;108427;1262;22642;-33
2022/11/18 11:20:23;;;;;;;6.90;2.80;;;;;;;;;;108454;1266;22530;-32
2022/11/18 11:22:57;;;;;;;6.60;2.60;;;;;;;;;;108450;1268;22501;-33
2022/11/18 11:25:41;;;;;;;6.40;2.70;;;;;;;;;;108375;1267;22590;-33
2022/11/18 11:28:21;;;;;;;5.20;2.60;;;;;;;;;;108444;1268;22552;-33
2022/11/18 11:31:11;;;;;;;7.50;2.60;;;;;;;;;;108403;1261;22585;-32
2022/11/18 11:33:48;;;;;;;5.60;2.30;;;;;;;;;;108423;1268;22558;-33
2022/11/18 11:36:35;;;;;;;5.70;2.20;;;;;;;;;;108422;1268;22499;-33
2022/11/18 11:39:37;;;;;;;4.90;2.10;;;;;;;;;;108392;1265;22853;-34
2022/11/18 11:42:23;;;;;;;5.50;2.30;;;;;;;;;;108425;1263;23549;-32
2022/11/18 11:45:17;;;;;;;4.70;2.00;;;;;;;;;;108387;1259;22529;-32
2022/11/18 11:48:00;;;;;;;;;;;;;;;;;;108500;1259;22577;-31
2022/11/18 11:50:53;;;;;;;5.20;2.20;;;;;;;;;;108413;1268;22596;-32
2022/11/18 11:53:53;;;;;;;4.70;2.00;;;;;;;;;;108507;1266;25399;-33
2022/11/18 11:56:33;;;;;;;5.60;2.30;;;;;;;;;;108369;1266;22539;-33
2022/11/18 11:59:21;;;;;;;4.60;2.20;;;;;;;;;;108444;1261;22633;-33
2022/11/18 12:02:15;;;;;;;5.40;2.10;;;;;;;;;;108452;1267;22575;-32
2022/11/18 12:04:52;;;;;;;5.70;2.10;;;;;;;;;;108384;1260;24033;-32
2022/11/18 12:07:31;;;;;;;5.10;2.30;;;;;;;;;;108480;1268;24016;-32
2022/11/18 12:10:35;;;;;;;4.00;1.90;;;;;;;;;;108520;1268;22515;-32
2022/11/18 12:13:23;;;;;;;4.10;2.00;;;;;;;;;;108428;1268;23840;-33
2022/11/18 12:16:10;;;;;;;4.80;2.00;;;;;;;;;;108472;1268;24388;-33
2022/11/18 12:18:47;;;;;;;4.80;2.00;;;;;;;;;;108482;1266;22542;-34
2022/11/18 12:22:02;;;;;;;4.10;1.90;;;;;;;;;;108540;1268;22672;-32
2022/11/18 12:24:43;;;;;;;4.70;2.40;;;;;;;;;;108491;1261;22558;-33
2022/11/18 12:27:55;;;;;;;5.10;2.80;;;;;;;;;;108419;1266;23899;-31
2022/11/18 12:30:30;;;;;;;5.20;2.70;;;;;;;;;;108479;1262;22612;-33
2022/11/18 12:33:02;;;;;;;4.30;1.90;;;;;;;;;;108441;1268;22697;-31
2022/11/18 12:35:35;;;;;;;5.60;2.20;;;;;;;;;;108500;1268;22576;-31
2022/11/18 12:38:11;;;;;;;4.00;1.90;;;;;;;;;;108448;1263;22618;-31
2022/11/18 12:40:46;;;;;;;4.80;1.90;;;;;;;;;;108514;1266;24125;-33
2022/11/18 12:44:09;;;;;;;4.70;2.00;;;;;;;;;;108479;1266;23088;-32
2022/11/18 12:46:54;;;;;;;4.40;1.70;;;;;;;;;;108428;1267;22575;-30
2022/11/18 12:50:15;;;;;;;5.60;2.10;;;;;;;;;;108470;1267;22658;-33
2022/11/18 12:52:56;;;;;;;4.60;1.80;;;;;;;;;;108408;1267;25391;-32
2022/11/18 12:55:41;;;;;;;4.70;2.00;;;;;;;;;;108469;1267;22631;-33
2022/11/18 12:58:26;;;;;;;4.70;2.00;;;;;;;;;;108447;1265;22566;-34
2022/11/18 13:01:12;;;;;;;4.40;2.00;;;;;;;;;;108396;1268;22561;-34
2022/11/18 13:03:44;;;;;;;4.90;2.10;;;;;;;;;;108464;1266;22588;-33
2022/11/18 13:06:28;;;;;;;5.40;2.20;;;;;;;;;;108459;1266;22553;-32
2022/11/18 13:09:04;;;;;;;4.90;2.30;;;;;;;;;;108417;1268;22555;-33
2022/11/18 13:11:54;;;;;;;4.00;2.00;;;;;;;;;;108520;1266;22550;-33
2022/11/18 13:20:32;;;;;;;4.20;2.00;;;;;;;;;;108426;1264;22557;-33
2022/11/18 13:26:17;;;;;;;3.70;1.80;;;;;;;;;;108439;1267;22654;-32
2022/11/18 13:29:06;;;;;;;3.90;1.80;;;;;;;;;;108390;1264;22724;-32
2022/11/18 13:31:49;;;;;;;4.20;2.10;;;;;;;;;;108511;1266;22639;-31
2022/11/18 13:34:25;;;;;;;3.60;1.70;;;;;;;;;;108518;1266;23831;-32
2022/11/18 13:37:00;;;;;;;4.00;1.80;;;;;;;;;;108483;1266;22567;-32
2022/11/18 13:39:34;;;;;;;4.50;1.70;;;;;;;;;;108366;1266;22603;-30
2022/11/18 13:42:18;;;;;;;3.50;1.90;;;;;;;;;;108397;1267;22599;-29
2022/11/18 13:44:58;;;;;;;3.90;1.90;;;;;;;;;;108450;1265;25333;-29
2022/11/18 13:47:46;;;;;;;4.40;1.70;;;;;;;;;;108378;1267;22569;-29
2022/11/18 13:50:25;;;;;;;4.40;1.90;;;;;;;;;;108404;1268;24402;-29
2022/11/18 13:53:09;;;;;;;4.30;2.00;;;;;;;;;;108459;1266;25409;-29
2022/11/18 13:55:47;;;;;;;4.80;1.90;;;;;;;;;;108441;1267;22502;-29
2022/11/18 13:58:41;;;;;;;4.00;1.90;;;;;;;;;;108442;1266;25453;-29
2022/11/18 14:01:22;;;;;;;3.80;2.00;;;;;;;;;;108405;1267;22586;-30
2022/11/18 14:03:57;;;;;;;4.50;2.20;;;;;;;;;;108413;1266;22543;-29
2022/11/18 14:06:32;;;;;;;4.00;1.90;;;;;;;;;;108394;1267;22560;-30
2022/11/18 14:09:22;;;;;;;4.60;2.00;;;;;;;;;;108366;1262;25264;-29
2022/11/18 14:12:21;;;;;;;4.60;2.00;;;;;;;;;;108403;1267;22499;-29
2022/11/18 14:14:54;;;;;;;5.20;2.10;;;;;;;;;;108477;1267;24478;-30
2022/11/18 14:17:27;;;;;;;5.10;2.10;;;;;;;;;;108454;1266;22566;-28
2022/11/18 14:20:06;;;;;;;4.70;2.30;;;;;;;;;;108389;1267;22486;-28
2022/11/18 14:22:44;;;;;;;4.60;2.10;;;;;;;;;;108420;1267;22620;-29
2022/11/18 14:25:28;;;;;;;4.60;2.20;;;;;;;;;;108419;1267;22540;-29
2022/11/18 14:28:19;;;;;;;5.30;2.40;;;;;;;;;;108446;1268;22909;-29
2022/11/18 14:31:04;;;;;;;5.40;2.40;;;;;;;;;;108482;1267;22632;-29
2022/11/18 14:33:37;;;;;;;4.70;2.30;;;;;;;;;;108460;1268;22550;-29
2022/11/18 14:36:16;;;;;;;5.30;2.20;;;;;;;;;;108483;1268;22506;-28
2022/11/18 14:38:50;;;;;;;4.00;2.00;;;;;;;;;;108450;1259;25441;-29
2022/11/18 14:44:13;;;;;;;4.50;2.10;;;;;;;;;;108382;1266;22502;-29
2022/11/18 14:46:51;;;;;;;4.70;2.20;;;;;;;;;;108353;1264;22531;-28
2022/11/18 14:49:29;;;;;;;4.40;2.00;;;;;;;;;;108438;1267;22498;-28
2022/11/18 14:52:03;;;;;;;4.40;2.10;;;;;;;;;;108529;1268;22593;-28
2022/11/18 14:54:35;;;;;;;4.30;2.30;;;;;;;;;;108462;1261;25406;-28
2022/11/18 14:57:10;;;;;;;4.40;2.40;;;;;;;;;;108430;1262;25261;-29
2022/11/18 14:59:42;;;;;;;4.30;2.40;;;;;;;;;;108445;1268;22547;-27
2022/11/18 15:02:20;;;;;;;3.90;2.20;;;;;;;;;;108406;1261;24360;-28
2022/11/18 15:04:52;;;;;;;4.60;2.40;;;;;;;;;;107652;1267;37008;-29
2022/11/18 15:07:22;;;;;;;4.70;2.30;;;;;;;;;;108092;1271;25406;-28
2022/11/18 15:09:53;;;;;;;5.20;2.70;;;;;;;;;;108095;1271;22600;-28
2022/11/18 15:12:24;;;;;;;4.80;2.40;;;;;;;;;;108051;1274;25957;-29
2022/11/18 15:14:55;;;;;;;5.00;2.60;;;;;;;;;;108035;1276;22840;-29
2022/11/18 15:17:28;;;;;;;4.50;2.50;;;;;;;;;;108070;1274;22629;-28
2022/11/18 15:20:00;;;;;;;5.00;2.70;;;;;;;;;;108063;1271;22727;-29
2022/11/18 15:22:31;;;;;;;5.10;2.50;;;;;;;;;;108096;1271;22600;-28
2022/11/18 15:25:02;;;;;;;5.50;2.60;;;;;;;;;;108136;1271;22570;-28
2022/11/18 15:27:33;;;;;;;5.10;2.80;;;;;;;;;;108113;1274;22581;-29
2022/11/18 15:30:04;;;;;;;5.30;2.50;;;;;;;;;;108059;1271;22634;-28
2022/11/18 15:32:34;;;;;;;6.20;2.90;;;;;;;;;;108193;1269;23080;-29
2022/11/18 15:35:06;;;;;;;7.00;2.80;;;;;;;;;;108059;1273;25376;-29
2022/11/18 15:37:36;;;;;;;5.00;2.90;;;;;;;;;;108087;1274;22556;-29
2022/11/18 15:40:09;;;;;;;6.80;2.90;;;;;;;;;;108050;1271;22536;-28
2022/11/18 15:42:40;;;;;;;5.50;3.00;;;;;;;;;;108063;1271;25447;-28
2022/11/18 15:45:12;;;;;;;5.30;2.80;;;;;;;;;;108137;1265;22556;-29
2022/11/18 15:47:42;;;;;;;6.10;2.80;;;;;;;;;;108084;1274;22717;-29
2022/11/18 15:50:14;;;;;;;4.80;2.80;;;;;;;;;;108106;1271;22573;-29
2022/11/18 15:52:45;;;;;;;5.70;3.00;;;;;;;;;;108019;1274;22622;-29
2022/11/18 15:55:15;;;;;;;5.30;2.60;;;;;;;;;;108062;1274;22562;-29
2022/11/18 15:57:46;;;;;;;4.90;2.60;;;;;;;;;;108062;1274;22681;-29
2022/11/18 16:00:21;;;;;;;5.70;2.70;;;;;;;;;;108059;1272;22594;-29